sensor_id;sensor_type;location;lat;lon;timestamp;P1;durP1;ratioP1;P2;durP2;ratioP2
28766;SDS011;15921;52.034;20.650;2023-05-29T00:00:19;18.25;;;7.25;;
28766;SDS011;15921;52.034;20.650;2023-05-29T00:02:46;19.08;;;6.82;;
28766;SDS011;15921;52.034;20.650;2023-05-29T00:05:16;17.95;;;6.28;;
28766;SDS011;15921;52.034;20.650;2023-05-29T00:07:42;11.23;;;5.82;;
28766;SDS011;15921;52.034;20.650;2023-05-29T00:10:09;10.13;;;5.78;;
28766;SDS011;15921;52.034;20.650;2023-05-29T00:12:35;14.50;;;5.63;;
28766;SDS011;15921;52.034;20.650;2023-05-29T00:15:01;13.20;;;5.78;;
28766;SDS011;15921;52.034;20.650;2023-05-29T00:17:30;9.70;;;5.60;;
28766;SDS011;15921;52.034;20.650;2023-05-29T00:19:59;12.23;;;5.03;;
28766;SDS011;15921;52.034;20.650;2023-05-29T00:22:26;14.13;;;5.93;;
28766;SDS011;15921;52.034;20.650;2023-05-29T00:24:52;12.32;;;5.10;;
28766;SDS011;15921;52.034;20.650;2023-05-29T00:27:18;14.65;;;5.80;;
28766;SDS011;15921;52.034;20.650;2023-05-29T00:29:43;15.65;;;5.82;;
28766;SDS011;15921;52.034;20.650;2023-05-29T00:32:10;13.07;;;6.10;;
28766;SDS011;15921;52.034;20.650;2023-05-29T00:34:35;13.48;;;6.35;;
28766;SDS011;15921;52.034;20.650;2023-05-29T00:37:01;14.57;;;6.18;;
28766;SDS011;15921;52.034;20.650;2023-05-29T00:39:27;12.55;;;6.22;;
28766;SDS011;15921;52.034;20.650;2023-05-29T00:41:54;14.50;;;6.10;;
28766;SDS011;15921;52.034;20.650;2023-05-29T00:44:20;13.35;;;5.80;;
28766;SDS011;15921;52.034;20.650;2023-05-29T00:46:51;15.90;;;5.75;;
28766;SDS011;15921;52.034;20.650;2023-05-29T00:49:18;11.07;;;5.43;;
28766;SDS011;15921;52.034;20.650;2023-05-29T00:51:45;13.63;;;5.88;;
28766;SDS011;15921;52.034;20.650;2023-05-29T00:54:12;13.50;;;5.78;;
28766;SDS011;15921;52.034;20.650;2023-05-29T00:56:39;12.05;;;5.93;;
28766;SDS011;15921;52.034;20.650;2023-05-29T00:59:09;17.90;;;6.47;;
28766;SDS011;15921;52.034;20.650;2023-05-29T01:01:35;20.98;;;7.28;;
28766;SDS011;15921;52.034;20.650;2023-05-29T01:04:02;18.77;;;6.63;;
28766;SDS011;15921;52.034;20.650;2023-05-29T01:06:31;18.67;;;6.53;;
28766;SDS011;15921;52.034;20.650;2023-05-29T01:08:57;18.67;;;6.45;;
28766;SDS011;15921;52.034;20.650;2023-05-29T01:14:25;10.90;;;5.15;;
28766;SDS011;15921;52.034;20.650;2023-05-29T01:17:11;15.98;;;5.95;;
28766;SDS011;15921;52.034;20.650;2023-05-29T01:20:08;14.02;;;5.97;;
28766;SDS011;15921;52.034;20.650;2023-05-29T01:28:24;13.50;;;6.05;;
28766;SDS011;15921;52.034;20.650;2023-05-29T01:30:52;11.23;;;5.15;;
28766;SDS011;15921;52.034;20.650;2023-05-29T01:33:22;12.63;;;5.63;;
28766;SDS011;15921;52.034;20.650;2023-05-29T01:35:47;12.40;;;5.60;;
28766;SDS011;15921;52.034;20.650;2023-05-29T01:38:16;19.63;;;6.78;;
28766;SDS011;15921;52.034;20.650;2023-05-29T01:40:42;12.52;;;5.50;;
28766;SDS011;15921;52.034;20.650;2023-05-29T01:43:07;16.27;;;5.95;;
28766;SDS011;15921;52.034;20.650;2023-05-29T01:45:33;28.55;;;6.68;;
28766;SDS011;15921;52.034;20.650;2023-05-29T01:48:00;51.08;;;8.35;;
28766;SDS011;15921;52.034;20.650;2023-05-29T01:50:26;76.50;;;8.63;;
28766;SDS011;15921;52.034;20.650;2023-05-29T01:52:53;58.28;;;8.13;;
28766;SDS011;15921;52.034;20.650;2023-05-29T01:55:19;54.38;;;8.48;;
28766;SDS011;15921;52.034;20.650;2023-05-29T01:57:45;59.03;;;8.25;;
28766;SDS011;15921;52.034;20.650;2023-05-29T02:00:12;73.40;;;8.75;;
28766;SDS011;15921;52.034;20.650;2023-05-29T02:02:38;71.38;;;9.52;;
28766;SDS011;15921;52.034;20.650;2023-05-29T02:05:05;62.72;;;8.00;;
28766;SDS011;15921;52.034;20.650;2023-05-29T02:07:33;36.70;;;6.15;;
28766;SDS011;15921;52.034;20.650;2023-05-29T02:09:59;34.13;;;6.70;;
28766;SDS011;15921;52.034;20.650;2023-05-29T02:12:24;23.63;;;5.30;;
28766;SDS011;15921;52.034;20.650;2023-05-29T02:14:50;15.48;;;5.15;;
28766;SDS011;15921;52.034;20.650;2023-05-29T02:17:15;16.83;;;5.30;;
28766;SDS011;15921;52.034;20.650;2023-05-29T02:19:41;18.63;;;7.05;;
28766;SDS011;15921;52.034;20.650;2023-05-29T02:22:07;27.48;;;8.05;;
28766;SDS011;15921;52.034;20.650;2023-05-29T02:24:33;21.92;;;5.97;;
28766;SDS011;15921;52.034;20.650;2023-05-29T02:26:58;18.23;;;6.22;;
28766;SDS011;15921;52.034;20.650;2023-05-29T02:29:24;32.95;;;7.80;;
28766;SDS011;15921;52.034;20.650;2023-05-29T02:31:50;30.60;;;7.53;;
28766;SDS011;15921;52.034;20.650;2023-05-29T02:34:15;24.48;;;6.63;;
28766;SDS011;15921;52.034;20.650;2023-05-29T02:36:41;38.75;;;8.90;;
28766;SDS011;15921;52.034;20.650;2023-05-29T02:39:07;19.90;;;6.40;;
28766;SDS011;15921;52.034;20.650;2023-05-29T02:41:32;18.85;;;6.63;;
28766;SDS011;15921;52.034;20.650;2023-05-29T02:43:58;21.58;;;6.60;;
28766;SDS011;15921;52.034;20.650;2023-05-29T02:46:24;19.67;;;5.90;;
28766;SDS011;15921;52.034;20.650;2023-05-29T02:48:49;13.15;;;5.30;;
28766;SDS011;15921;52.034;20.650;2023-05-29T02:51:15;16.80;;;5.65;;
28766;SDS011;15921;52.034;20.650;2023-05-29T02:53:40;21.80;;;6.68;;
28766;SDS011;15921;52.034;20.650;2023-05-29T02:56:07;19.30;;;6.65;;
28766;SDS011;15921;52.034;20.650;2023-05-29T02:58:34;16.15;;;6.70;;
28766;SDS011;15921;52.034;20.650;2023-05-29T03:01:01;13.63;;;5.70;;
28766;SDS011;15921;52.034;20.650;2023-05-29T03:03:29;17.70;;;7.03;;
28766;SDS011;15921;52.034;20.650;2023-05-29T03:05:54;15.63;;;6.25;;
28766;SDS011;15921;52.034;20.650;2023-05-29T03:08:20;13.32;;;5.90;;
28766;SDS011;15921;52.034;20.650;2023-05-29T03:10:46;14.48;;;6.07;;
28766;SDS011;15921;52.034;20.650;2023-05-29T03:13:12;15.25;;;5.70;;
28766;SDS011;15921;52.034;20.650;2023-05-29T03:15:38;12.68;;;5.22;;
28766;SDS011;15921;52.034;20.650;2023-05-29T03:18:04;19.13;;;5.95;;
28766;SDS011;15921;52.034;20.650;2023-05-29T03:20:29;13.43;;;6.20;;
28766;SDS011;15921;52.034;20.650;2023-05-29T03:22:55;13.35;;;5.28;;
28766;SDS011;15921;52.034;20.650;2023-05-29T03:25:22;19.63;;;5.40;;
28766;SDS011;15921;52.034;20.650;2023-05-29T03:27:47;11.15;;;5.00;;
28766;SDS011;15921;52.034;20.650;2023-05-29T03:30:13;12.48;;;5.05;;
28766;SDS011;15921;52.034;20.650;2023-05-29T03:32:39;14.80;;;5.40;;
28766;SDS011;15921;52.034;20.650;2023-05-29T03:35:05;12.57;;;4.78;;
28766;SDS011;15921;52.034;20.650;2023-05-29T03:37:31;11.77;;;5.32;;
28766;SDS011;15921;52.034;20.650;2023-05-29T03:39:57;13.60;;;4.88;;
28766;SDS011;15921;52.034;20.650;2023-05-29T03:42:22;15.30;;;5.53;;
28766;SDS011;15921;52.034;20.650;2023-05-29T03:44:48;13.63;;;6.13;;
28766;SDS011;15921;52.034;20.650;2023-05-29T03:47:14;20.40;;;5.63;;
28766;SDS011;15921;52.034;20.650;2023-05-29T03:49:39;14.27;;;5.28;;
28766;SDS011;15921;52.034;20.650;2023-05-29T03:52:05;19.75;;;7.00;;
28766;SDS011;15921;52.034;20.650;2023-05-29T03:54:31;17.60;;;6.78;;
28766;SDS011;15921;52.034;20.650;2023-05-29T03:56:57;20.58;;;7.35;;
28766;SDS011;15921;52.034;20.650;2023-05-29T03:59:22;18.13;;;6.00;;
28766;SDS011;15921;52.034;20.650;2023-05-29T04:01:48;13.98;;;6.47;;
28766;SDS011;15921;52.034;20.650;2023-05-29T04:04:14;18.90;;;6.80;;
28766;SDS011;15921;52.034;20.650;2023-05-29T04:06:39;13.23;;;6.32;;
28766;SDS011;15921;52.034;20.650;2023-05-29T04:09:06;14.68;;;6.45;;
28766;SDS011;15921;52.034;20.650;2023-05-29T04:11:35;10.25;;;5.40;;
28766;SDS011;15921;52.034;20.650;2023-05-29T04:14:01;11.30;;;5.10;;
28766;SDS011;15921;52.034;20.650;2023-05-29T04:16:27;13.50;;;5.50;;
28766;SDS011;15921;52.034;20.650;2023-05-29T04:18:54;13.52;;;5.70;;
28766;SDS011;15921;52.034;20.650;2023-05-29T04:21:20;11.40;;;5.40;;
28766;SDS011;15921;52.034;20.650;2023-05-29T04:23:46;19.02;;;6.00;;
28766;SDS011;15921;52.034;20.650;2023-05-29T04:26:11;16.50;;;6.30;;
28766;SDS011;15921;52.034;20.650;2023-05-29T04:28:38;15.32;;;5.30;;
28766;SDS011;15921;52.034;20.650;2023-05-29T04:31:04;12.43;;;5.32;;
28766;SDS011;15921;52.034;20.650;2023-05-29T04:33:30;10.65;;;5.60;;
28766;SDS011;15921;52.034;20.650;2023-05-29T04:35:57;11.40;;;5.18;;
28766;SDS011;15921;52.034;20.650;2023-05-29T04:38:26;10.27;;;5.10;;
28766;SDS011;15921;52.034;20.650;2023-05-29T04:40:52;15.38;;;5.72;;
28766;SDS011;15921;52.034;20.650;2023-05-29T04:43:22;16.30;;;4.57;;
28766;SDS011;15921;52.034;20.650;2023-05-29T04:45:52;15.63;;;5.13;;
28766;SDS011;15921;52.034;20.650;2023-05-29T04:48:18;11.18;;;4.55;;
28766;SDS011;15921;52.034;20.650;2023-05-29T04:50:43;16.48;;;4.43;;
28766;SDS011;15921;52.034;20.650;2023-05-29T04:53:10;24.10;;;5.13;;
28766;SDS011;15921;52.034;20.650;2023-05-29T04:55:38;11.23;;;4.15;;
28766;SDS011;15921;52.034;20.650;2023-05-29T04:58:04;7.78;;;4.10;;
28766;SDS011;15921;52.034;20.650;2023-05-29T05:00:30;15.55;;;4.28;;
28766;SDS011;15921;52.034;20.650;2023-05-29T05:02:55;8.50;;;4.25;;
28766;SDS011;15921;52.034;20.650;2023-05-29T05:05:21;10.30;;;4.80;;
28766;SDS011;15921;52.034;20.650;2023-05-29T05:07:47;16.80;;;5.18;;
28766;SDS011;15921;52.034;20.650;2023-05-29T05:10:12;15.73;;;4.72;;
28766;SDS011;15921;52.034;20.650;2023-05-29T05:12:38;13.20;;;4.65;;
28766;SDS011;15921;52.034;20.650;2023-05-29T05:15:04;12.18;;;4.93;;
28766;SDS011;15921;52.034;20.650;2023-05-29T05:17:30;15.77;;;5.28;;
28766;SDS011;15921;52.034;20.650;2023-05-29T05:19:57;12.50;;;4.95;;
28766;SDS011;15921;52.034;20.650;2023-05-29T05:22:23;12.70;;;4.55;;
28766;SDS011;15921;52.034;20.650;2023-05-29T05:24:48;9.73;;;5.10;;
28766;SDS011;15921;52.034;20.650;2023-05-29T05:27:14;8.25;;;4.10;;
28766;SDS011;15921;52.034;20.650;2023-05-29T05:29:40;7.22;;;4.00;;
28766;SDS011;15921;52.034;20.650;2023-05-29T05:32:05;10.63;;;4.90;;
28766;SDS011;15921;52.034;20.650;2023-05-29T05:34:31;11.15;;;4.03;;
28766;SDS011;15921;52.034;20.650;2023-05-29T05:36:57;11.73;;;4.10;;
28766;SDS011;15921;52.034;20.650;2023-05-29T05:39:23;10.27;;;4.82;;
28766;SDS011;15921;52.034;20.650;2023-05-29T05:41:48;8.35;;;4.20;;
28766;SDS011;15921;52.034;20.650;2023-05-29T05:44:14;10.50;;;4.35;;
28766;SDS011;15921;52.034;20.650;2023-05-29T05:46:40;10.30;;;4.00;;
28766;SDS011;15921;52.034;20.650;2023-05-29T05:49:06;10.80;;;4.25;;
28766;SDS011;15921;52.034;20.650;2023-05-29T05:51:32;9.20;;;3.88;;
28766;SDS011;15921;52.034;20.650;2023-05-29T05:53:58;14.52;;;3.80;;
28766;SDS011;15921;52.034;20.650;2023-05-29T05:56:23;8.45;;;3.35;;
28766;SDS011;15921;52.034;20.650;2023-05-29T05:58:50;10.43;;;4.28;;
28766;SDS011;15921;52.034;20.650;2023-05-29T06:01:16;9.25;;;3.38;;
28766;SDS011;15921;52.034;20.650;2023-05-29T06:03:41;10.98;;;3.78;;
28766;SDS011;15921;52.034;20.650;2023-05-29T06:06:07;9.02;;;3.78;;
28766;SDS011;15921;52.034;20.650;2023-05-29T06:08:33;7.95;;;3.13;;
28766;SDS011;15921;52.034;20.650;2023-05-29T06:10:59;11.73;;;4.47;;
28766;SDS011;15921;52.034;20.650;2023-05-29T06:13:25;8.63;;;4.28;;
28766;SDS011;15921;52.034;20.650;2023-05-29T06:15:51;7.22;;;4.20;;
28766;SDS011;15921;52.034;20.650;2023-05-29T06:18:16;14.80;;;3.72;;
28766;SDS011;15921;52.034;20.650;2023-05-29T06:20:42;21.35;;;4.18;;
28766;SDS011;15921;52.034;20.650;2023-05-29T06:23:08;7.78;;;2.97;;
28766;SDS011;15921;52.034;20.650;2023-05-29T06:25:34;9.60;;;3.58;;
28766;SDS011;15921;52.034;20.650;2023-05-29T06:28:00;9.48;;;3.33;;
28766;SDS011;15921;52.034;20.650;2023-05-29T06:30:26;9.82;;;3.10;;
28766;SDS011;15921;52.034;20.650;2023-05-29T06:32:52;11.85;;;3.65;;
28766;SDS011;15921;52.034;20.650;2023-05-29T06:35:18;4.40;;;2.38;;
28766;SDS011;15921;52.034;20.650;2023-05-29T06:37:44;8.95;;;3.03;;
28766;SDS011;15921;52.034;20.650;2023-05-29T06:40:11;27.90;;;3.70;;
28766;SDS011;15921;52.034;20.650;2023-05-29T06:42:41;6.55;;;2.60;;
28766;SDS011;15921;52.034;20.650;2023-05-29T06:45:10;6.78;;;2.63;;
28766;SDS011;15921;52.034;20.650;2023-05-29T06:47:38;10.88;;;2.75;;
28766;SDS011;15921;52.034;20.650;2023-05-29T06:50:05;11.00;;;2.40;;
28766;SDS011;15921;52.034;20.650;2023-05-29T06:52:31;30.00;;;3.67;;
28766;SDS011;15921;52.034;20.650;2023-05-29T06:54:57;7.28;;;2.45;;
28766;SDS011;15921;52.034;20.650;2023-05-29T06:57:22;9.80;;;2.58;;
28766;SDS011;15921;52.034;20.650;2023-05-29T06:59:48;9.18;;;2.25;;
28766;SDS011;15921;52.034;20.650;2023-05-29T07:02:14;9.60;;;2.47;;
28766;SDS011;15921;52.034;20.650;2023-05-29T07:04:39;13.48;;;2.65;;
28766;SDS011;15921;52.034;20.650;2023-05-29T07:07:06;4.50;;;2.08;;
28766;SDS011;15921;52.034;20.650;2023-05-29T07:09:31;7.93;;;2.85;;
28766;SDS011;15921;52.034;20.650;2023-05-29T07:11:57;12.88;;;2.65;;
28766;SDS011;15921;52.034;20.650;2023-05-29T07:14:23;5.63;;;2.28;;
28766;SDS011;15921;52.034;20.650;2023-05-29T07:16:48;7.03;;;2.08;;
28766;SDS011;15921;52.034;20.650;2023-05-29T07:19:14;17.77;;;2.40;;
28766;SDS011;15921;52.034;20.650;2023-05-29T07:21:41;7.82;;;2.45;;
28766;SDS011;15921;52.034;20.650;2023-05-29T07:24:07;5.78;;;1.95;;
28766;SDS011;15921;52.034;20.650;2023-05-29T07:26:32;49.60;;;4.80;;
28766;SDS011;15921;52.034;20.650;2023-05-29T07:28:58;10.75;;;2.47;;
28766;SDS011;15921;52.034;20.650;2023-05-29T07:31:24;7.43;;;2.50;;
28766;SDS011;15921;52.034;20.650;2023-05-29T07:33:49;18.75;;;2.72;;
28766;SDS011;15921;52.034;20.650;2023-05-29T07:36:15;11.55;;;1.83;;
28766;SDS011;15921;52.034;20.650;2023-05-29T07:38:43;9.55;;;2.30;;
28766;SDS011;15921;52.034;20.650;2023-05-29T07:41:08;6.38;;;2.10;;
28766;SDS011;15921;52.034;20.650;2023-05-29T07:43:34;5.20;;;1.83;;
28766;SDS011;15921;52.034;20.650;2023-05-29T07:46:00;11.10;;;2.00;;
28766;SDS011;15921;52.034;20.650;2023-05-29T07:48:27;6.43;;;2.20;;
28766;SDS011;15921;52.034;20.650;2023-05-29T07:50:52;13.25;;;2.28;;
28766;SDS011;15921;52.034;20.650;2023-05-29T07:53:18;7.60;;;2.30;;
28766;SDS011;15921;52.034;20.650;2023-05-29T07:55:44;8.23;;;2.40;;
28766;SDS011;15921;52.034;20.650;2023-05-29T07:58:10;5.93;;;2.55;;
28766;SDS011;15921;52.034;20.650;2023-05-29T08:00:36;3.55;;;1.70;;
28766;SDS011;15921;52.034;20.650;2023-05-29T08:03:03;6.95;;;2.08;;
28766;SDS011;15921;52.034;20.650;2023-05-29T08:05:30;5.35;;;2.03;;
28766;SDS011;15921;52.034;20.650;2023-05-29T08:07:58;9.05;;;2.95;;
28766;SDS011;15921;52.034;20.650;2023-05-29T08:10:24;7.40;;;2.70;;
28766;SDS011;15921;52.034;20.650;2023-05-29T08:12:50;16.50;;;2.00;;
28766;SDS011;15921;52.034;20.650;2023-05-29T08:15:17;7.85;;;1.80;;
28766;SDS011;15921;52.034;20.650;2023-05-29T08:17:43;6.40;;;1.80;;
28766;SDS011;15921;52.034;20.650;2023-05-29T08:20:09;6.45;;;1.50;;
28766;SDS011;15921;52.034;20.650;2023-05-29T08:22:35;6.28;;;1.80;;
28766;SDS011;15921;52.034;20.650;2023-05-29T08:25:01;5.38;;;1.88;;
28766;SDS011;15921;52.034;20.650;2023-05-29T08:27:27;36.60;;;2.80;;
28766;SDS011;15921;52.034;20.650;2023-05-29T08:29:53;4.20;;;1.73;;
28766;SDS011;15921;52.034;20.650;2023-05-29T08:32:19;8.05;;;1.70;;
28766;SDS011;15921;52.034;20.650;2023-05-29T08:34:46;6.40;;;1.90;;
28766;SDS011;15921;52.034;20.650;2023-05-29T08:37:11;7.78;;;1.75;;
28766;SDS011;15921;52.034;20.650;2023-05-29T08:39:37;13.32;;;2.05;;
28766;SDS011;15921;52.034;20.650;2023-05-29T08:42:13;7.43;;;2.25;;
28766;SDS011;15921;52.034;20.650;2023-05-29T08:44:58;3.42;;;1.55;;
28766;SDS011;15921;52.034;20.650;2023-05-29T08:47:28;8.48;;;1.75;;
28766;SDS011;15921;52.034;20.650;2023-05-29T08:49:58;7.38;;;1.60;;
28766;SDS011;15921;52.034;20.650;2023-05-29T08:52:26;8.13;;;1.88;;
28766;SDS011;15921;52.034;20.650;2023-05-29T08:54:54;7.13;;;1.90;;
28766;SDS011;15921;52.034;20.650;2023-05-29T08:57:20;4.55;;;1.75;;
28766;SDS011;15921;52.034;20.650;2023-05-29T08:59:47;5.95;;;1.70;;
28766;SDS011;15921;52.034;20.650;2023-05-29T09:02:17;6.00;;;1.90;;
28766;SDS011;15921;52.034;20.650;2023-05-29T09:04:43;9.02;;;2.17;;
28766;SDS011;15921;52.034;20.650;2023-05-29T09:07:10;11.38;;;1.70;;
28766;SDS011;15921;52.034;20.650;2023-05-29T09:09:37;5.22;;;1.70;;
28766;SDS011;15921;52.034;20.650;2023-05-29T09:12:03;4.75;;;2.10;;
28766;SDS011;15921;52.034;20.650;2023-05-29T09:17:03;6.25;;;1.98;;
28766;SDS011;15921;52.034;20.650;2023-05-29T09:19:30;9.00;;;2.08;;
28766;SDS011;15921;52.034;20.650;2023-05-29T09:22:09;9.45;;;2.00;;
28766;SDS011;15921;52.034;20.650;2023-05-29T09:24:38;9.05;;;1.92;;
28766;SDS011;15921;52.034;20.650;2023-05-29T09:27:05;6.00;;;2.00;;
28766;SDS011;15921;52.034;20.650;2023-05-29T09:29:42;8.50;;;2.03;;
28766;SDS011;15921;52.034;20.650;2023-05-29T09:32:09;9.00;;;1.92;;
28766;SDS011;15921;52.034;20.650;2023-05-29T09:34:36;7.22;;;1.90;;
28766;SDS011;15921;52.034;20.650;2023-05-29T09:37:03;5.70;;;2.17;;
28766;SDS011;15921;52.034;20.650;2023-05-29T09:39:54;13.13;;;1.90;;
28766;SDS011;15921;52.034;20.650;2023-05-29T09:42:19;8.25;;;1.75;;
28766;SDS011;15921;52.034;20.650;2023-05-29T09:44:45;10.82;;;2.20;;
28766;SDS011;15921;52.034;20.650;2023-05-29T09:47:16;13.32;;;2.10;;
28766;SDS011;15921;52.034;20.650;2023-05-29T09:49:43;16.63;;;2.60;;
28766;SDS011;15921;52.034;20.650;2023-05-29T09:52:14;15.10;;;2.15;;
28766;SDS011;15921;52.034;20.650;2023-05-29T09:54:43;7.03;;;1.98;;
28766;SDS011;15921;52.034;20.650;2023-05-29T09:57:13;9.20;;;2.40;;
28766;SDS011;15921;52.034;20.650;2023-05-29T09:59:41;16.10;;;2.72;;
28766;SDS011;15921;52.034;20.650;2023-05-29T10:02:10;5.20;;;2.20;;
28766;SDS011;15921;52.034;20.650;2023-05-29T10:04:40;4.10;;;1.90;;
28766;SDS011;15921;52.034;20.650;2023-05-29T10:07:12;6.75;;;1.95;;
28766;SDS011;15921;52.034;20.650;2023-05-29T10:09:45;5.63;;;1.88;;
28766;SDS011;15921;52.034;20.650;2023-05-29T10:12:15;8.40;;;2.03;;
28766;SDS011;15921;52.034;20.650;2023-05-29T10:14:46;9.45;;;1.98;;
28766;SDS011;15921;52.034;20.650;2023-05-29T10:17:19;8.63;;;2.30;;
28766;SDS011;15921;52.034;20.650;2023-05-29T10:19:50;9.45;;;1.98;;
28766;SDS011;15921;52.034;20.650;2023-05-29T10:22:20;7.28;;;2.28;;
28766;SDS011;15921;52.034;20.650;2023-05-29T10:24:50;8.10;;;2.00;;
28766;SDS011;15921;52.034;20.650;2023-05-29T10:27:17;5.68;;;2.40;;
28766;SDS011;15921;52.034;20.650;2023-05-29T10:29:51;8.45;;;2.20;;
28766;SDS011;15921;52.034;20.650;2023-05-29T10:32:23;13.13;;;2.10;;
28766;SDS011;15921;52.034;20.650;2023-05-29T10:37:40;6.82;;;2.13;;
28766;SDS011;15921;52.034;20.650;2023-05-29T10:40:11;8.48;;;2.53;;
28766;SDS011;15921;52.034;20.650;2023-05-29T10:48:40;5.72;;;2.17;;
28766;SDS011;15921;52.034;20.650;2023-05-29T10:50:48;6.47;;;2.33;;
28766;SDS011;15921;52.034;20.650;2023-05-29T10:53:16;5.82;;;2.10;;
28766;SDS011;15921;52.034;20.650;2023-05-29T10:55:44;11.90;;;2.28;;
28766;SDS011;15921;52.034;20.650;2023-05-29T10:58:12;8.25;;;2.15;;
28766;SDS011;15921;52.034;20.650;2023-05-29T11:00:41;7.88;;;2.10;;
28766;SDS011;15921;52.034;20.650;2023-05-29T11:03:08;5.72;;;1.70;;
28766;SDS011;15921;52.034;20.650;2023-05-29T11:05:34;6.68;;;2.10;;
28766;SDS011;15921;52.034;20.650;2023-05-29T11:08:00;4.45;;;1.95;;
28766;SDS011;15921;52.034;20.650;2023-05-29T11:10:45;8.63;;;2.25;;
28766;SDS011;15921;52.034;20.650;2023-05-29T11:18:50;10.05;;;2.63;;
28766;SDS011;15921;52.034;20.650;2023-05-29T11:24:07;8.07;;;2.38;;
28766;SDS011;15921;52.034;20.650;2023-05-29T11:26:39;5.68;;;2.28;;
28766;SDS011;15921;52.034;20.650;2023-05-29T11:29:10;12.00;;;2.63;;
28766;SDS011;15921;52.034;20.650;2023-05-29T11:31:38;9.40;;;2.05;;
28766;SDS011;15921;52.034;20.650;2023-05-29T11:34:05;9.02;;;2.60;;
28766;SDS011;15921;52.034;20.650;2023-05-29T11:36:35;5.10;;;1.85;;
28766;SDS011;15921;52.034;20.650;2023-05-29T11:39:03;9.70;;;2.70;;
28766;SDS011;15921;52.034;20.650;2023-05-29T11:41:29;10.05;;;2.30;;
28766;SDS011;15921;52.034;20.650;2023-05-29T11:44:01;6.10;;;2.10;;
28766;SDS011;15921;52.034;20.650;2023-05-29T11:46:28;10.05;;;2.38;;
28766;SDS011;15921;52.034;20.650;2023-05-29T11:48:57;6.40;;;2.35;;
28766;SDS011;15921;52.034;20.650;2023-05-29T11:51:23;4.30;;;1.92;;
28766;SDS011;15921;52.034;20.650;2023-05-29T11:53:50;9.00;;;2.13;;
28766;SDS011;15921;52.034;20.650;2023-05-29T11:56:23;16.15;;;3.28;;
28766;SDS011;15921;52.034;20.650;2023-05-29T11:58:50;9.63;;;2.67;;
28766;SDS011;15921;52.034;20.650;2023-05-29T12:01:20;10.63;;;1.90;;
28766;SDS011;15921;52.034;20.650;2023-05-29T12:03:46;8.48;;;2.53;;
28766;SDS011;15921;52.034;20.650;2023-05-29T12:06:12;8.77;;;2.22;;
28766;SDS011;15921;52.034;20.650;2023-05-29T12:08:38;6.15;;;2.58;;
28766;SDS011;15921;52.034;20.650;2023-05-29T12:11:04;7.82;;;2.25;;
28766;SDS011;15921;52.034;20.650;2023-05-29T12:13:30;10.10;;;2.63;;
28766;SDS011;15921;52.034;20.650;2023-05-29T12:16:00;4.38;;;2.13;;
28766;SDS011;15921;52.034;20.650;2023-05-29T12:18:28;8.30;;;2.63;;
28766;SDS011;15921;52.034;20.650;2023-05-29T12:20:58;7.63;;;2.55;;
28766;SDS011;15921;52.034;20.650;2023-05-29T12:23:28;5.65;;;1.92;;
28766;SDS011;15921;52.034;20.650;2023-05-29T12:25:55;3.47;;;1.92;;
28766;SDS011;15921;52.034;20.650;2023-05-29T12:28:21;5.93;;;2.10;;
28766;SDS011;15921;52.034;20.650;2023-05-29T12:30:47;9.63;;;2.20;;
28766;SDS011;15921;52.034;20.650;2023-05-29T12:33:33;9.98;;;2.20;;
28766;SDS011;15921;52.034;20.650;2023-05-29T12:36:08;3.28;;;2.20;;
28766;SDS011;15921;52.034;20.650;2023-05-29T12:38:50;4.15;;;1.60;;
28766;SDS011;15921;52.034;20.650;2023-05-29T12:43:57;5.22;;;1.80;;
28766;SDS011;15921;52.034;20.650;2023-05-29T12:46:26;12.10;;;3.20;;
28766;SDS011;15921;52.034;20.650;2023-05-29T12:48:55;2.80;;;2.00;;
28766;SDS011;15921;52.034;20.650;2023-05-29T12:51:27;15.73;;;2.47;;
28766;SDS011;15921;52.034;20.650;2023-05-29T12:56:22;7.45;;;2.42;;
28766;SDS011;15921;52.034;20.650;2023-05-29T12:58:51;3.78;;;2.08;;
28766;SDS011;15921;52.034;20.650;2023-05-29T13:01:17;5.25;;;2.30;;
28766;SDS011;15921;52.034;20.650;2023-05-29T13:03:43;6.97;;;2.05;;
28766;SDS011;15921;52.034;20.650;2023-05-29T13:06:09;5.35;;;2.25;;
28766;SDS011;15921;52.034;20.650;2023-05-29T13:08:35;2.65;;;1.80;;
28766;SDS011;15921;52.034;20.650;2023-05-29T13:11:01;4.72;;;2.08;;
28766;SDS011;15921;52.034;20.650;2023-05-29T13:13:27;5.43;;;2.10;;
28766;SDS011;15921;52.034;20.650;2023-05-29T13:15:53;8.55;;;2.10;;
28766;SDS011;15921;52.034;20.650;2023-05-29T13:18:18;6.10;;;2.08;;
28766;SDS011;15921;52.034;20.650;2023-05-29T13:20:44;7.07;;;2.10;;
28766;SDS011;15921;52.034;20.650;2023-05-29T13:23:10;7.85;;;2.17;;
28766;SDS011;15921;52.034;20.650;2023-05-29T13:25:36;7.45;;;2.30;;
28766;SDS011;15921;52.034;20.650;2023-05-29T13:28:01;4.57;;;1.95;;
28766;SDS011;15921;52.034;20.650;2023-05-29T13:30:27;3.20;;;1.90;;
28766;SDS011;15921;52.034;20.650;2023-05-29T13:32:53;10.05;;;2.50;;
28766;SDS011;15921;52.034;20.650;2023-05-29T13:35:19;7.72;;;2.15;;
28766;SDS011;15921;52.034;20.650;2023-05-29T13:37:45;8.02;;;2.67;;
28766;SDS011;15921;52.034;20.650;2023-05-29T13:40:11;5.40;;;1.88;;
28766;SDS011;15921;52.034;20.650;2023-05-29T13:42:40;5.97;;;2.17;;
28766;SDS011;15921;52.034;20.650;2023-05-29T13:45:06;20.38;;;3.05;;
28766;SDS011;15921;52.034;20.650;2023-05-29T13:47:33;6.53;;;2.20;;
28766;SDS011;15921;52.034;20.650;2023-05-29T13:49:59;7.25;;;1.98;;
28766;SDS011;15921;52.034;20.650;2023-05-29T13:52:25;2.80;;;1.95;;
28766;SDS011;15921;52.034;20.650;2023-05-29T13:54:52;5.03;;;2.13;;
28766;SDS011;15921;52.034;20.650;2023-05-29T13:57:17;7.13;;;1.95;;
28766;SDS011;15921;52.034;20.650;2023-05-29T13:59:43;4.55;;;2.42;;
28766;SDS011;15921;52.034;20.650;2023-05-29T14:02:09;4.05;;;2.35;;
28766;SDS011;15921;52.034;20.650;2023-05-29T14:04:36;6.47;;;1.92;;
28766;SDS011;15921;52.034;20.650;2023-05-29T14:07:03;4.93;;;2.00;;
28766;SDS011;15921;52.034;20.650;2023-05-29T14:09:29;6.65;;;2.25;;
28766;SDS011;15921;52.034;20.650;2023-05-29T14:11:55;6.30;;;2.17;;
28766;SDS011;15921;52.034;20.650;2023-05-29T14:14:22;9.93;;;2.30;;
28766;SDS011;15921;52.034;20.650;2023-05-29T14:16:49;3.70;;;2.08;;
28766;SDS011;15921;52.034;20.650;2023-05-29T14:19:15;4.85;;;2.03;;
28766;SDS011;15921;52.034;20.650;2023-05-29T14:21:40;6.30;;;2.28;;
28766;SDS011;15921;52.034;20.650;2023-05-29T14:24:06;4.75;;;1.80;;
28766;SDS011;15921;52.034;20.650;2023-05-29T14:26:32;5.15;;;2.10;;
28766;SDS011;15921;52.034;20.650;2023-05-29T14:28:58;10.25;;;3.25;;
28766;SDS011;15921;52.034;20.650;2023-05-29T14:31:24;6.93;;;2.78;;
28766;SDS011;15921;52.034;20.650;2023-05-29T14:33:49;4.28;;;2.20;;
28766;SDS011;15921;52.034;20.650;2023-05-29T14:36:15;3.75;;;1.92;;
28766;SDS011;15921;52.034;20.650;2023-05-29T14:38:41;8.10;;;2.38;;
28766;SDS011;15921;52.034;20.650;2023-05-29T14:41:08;4.93;;;2.10;;
28766;SDS011;15921;52.034;20.650;2023-05-29T14:43:34;9.90;;;2.95;;
28766;SDS011;15921;52.034;20.650;2023-05-29T14:46:00;9.25;;;2.00;;
28766;SDS011;15921;52.034;20.650;2023-05-29T14:48:25;4.10;;;2.03;;
28766;SDS011;15921;52.034;20.650;2023-05-29T14:50:51;6.68;;;2.50;;
28766;SDS011;15921;52.034;20.650;2023-05-29T14:53:17;6.80;;;2.50;;
28766;SDS011;15921;52.034;20.650;2023-05-29T14:55:43;5.03;;;2.33;;
28766;SDS011;15921;52.034;20.650;2023-05-29T14:58:09;8.68;;;2.30;;
28766;SDS011;15921;52.034;20.650;2023-05-29T15:00:35;15.73;;;2.17;;